createdAt,value
2017-09-05T15:17:25.483Z,1024.6
2017-09-05T15:18:27.222Z,1024.6
2017-09-05T15:19:28.991Z,1024.7
2017-09-05T15:20:32.120Z,1025.0
2017-09-05T15:21:37.013Z,1025.0
2017-09-05T15:22:56.638Z,1025.0
2017-09-05T15:24:03.472Z,1025.0
2017-09-05T15:25:06.584Z,1025.1
2017-09-05T15:26:11.422Z,1025.1
2017-09-05T15:27:15.259Z,1025.1
2017-09-05T15:28:19.687Z,1025.1
2017-09-05T15:29:26.826Z,1025.3
2017-09-05T15:30:31.617Z,1025.4
2017-09-05T15:31:35.118Z,1025.2
2017-09-05T15:32:39.236Z,1025.3
2017-09-05T15:33:43.851Z,1025.2
2017-09-05T15:34:47.065Z,1025.1
2017-09-05T15:35:54.473Z,1024.9
2017-09-05T15:37:31.878Z,1024.6
2017-09-05T15:38:35.731Z,1024.3
2017-09-05T15:39:38.072Z,1024.3
2017-09-05T15:40:41.878Z,1024.1
2017-09-05T15:41:45.027Z,1024.2
2017-09-05T15:42:48.848Z,1024.2
2017-09-05T15:43:52.719Z,1024.1
2017-09-05T15:44:56.763Z,1024.0
2017-09-05T15:46:01.680Z,1023.9
2017-09-05T15:47:06.203Z,1023.9
2017-09-05T15:48:10.158Z,1023.9
2017-09-05T15:49:14.293Z,1023.9
2017-09-05T15:50:18.374Z,1023.8
2017-09-05T15:51:21.970Z,1023.8
2017-09-05T15:52:23.780Z,1023.8
2017-09-05T15:53:25.729Z,1023.8
2017-09-05T15:54:27.480Z,1023.7
2017-09-05T15:55:29.602Z,1023.7
2017-09-05T15:58:10.286Z,1023.7
2017-09-05T15:59:17.199Z,1023.7
2017-09-05T16:00:27.687Z,1023.8
2017-09-05T16:01:30.340Z,1023.7
2017-09-05T16:02:31.978Z,1023.7
2017-09-05T16:03:36.716Z,1023.7
2017-09-05T16:05:05.094Z,1023.6
2017-09-05T16:10:08.634Z,1023.6
2017-09-05T16:11:11.348Z,1023.5
2017-09-05T16:12:13.811Z,1023.4
2017-09-05T16:13:16.497Z,1023.4
2017-09-05T16:14:20.949Z,1023.3
2017-09-05T16:15:22.713Z,1023.3
2017-09-05T16:16:25.179Z,1023.3
2017-09-05T16:17:27.203Z,1023.2
2017-09-05T16:18:28.968Z,1023.4
2017-09-05T16:19:31.654Z,1023.5
2017-09-05T16:20:33.499Z,1023.6
2017-09-05T16:21:35.353Z,1023.6
2017-09-05T16:22:37.168Z,1023.7
2017-09-05T16:23:38.994Z,1023.7
2017-09-05T16:24:40.791Z,1023.7
2017-09-05T16:25:42.571Z,1023.7
2017-09-05T16:26:44.297Z,1023.7
2017-09-05T16:27:46.009Z,1023.7
2017-09-05T16:28:47.770Z,1023.5
2017-09-05T16:29:49.770Z,1023.7
2017-09-05T16:30:51.476Z,1023.7
2017-09-05T16:31:53.794Z,1023.6
2017-09-05T16:32:55.530Z,1023.4
2017-09-05T16:33:57.258Z,1023.7
2017-09-05T16:34:58.975Z,1023.7
2017-09-05T16:36:00.703Z,1023.7
2017-09-05T16:37:02.971Z,1023.7
2017-09-05T16:38:04.690Z,1023.7
2017-09-05T16:39:06.427Z,1023.7
2017-09-05T16:40:08.156Z,1023.6
2017-09-05T16:41:09.899Z,1023.7
2017-09-05T16:42:11.840Z,1023.7
2017-09-05T16:43:13.553Z,1023.7
2017-09-05T16:44:15.291Z,1023.6
2017-09-05T16:45:16.996Z,1023.4
2017-09-05T16:46:18.724Z,1023.5
2017-09-05T16:47:20.492Z,1023.4
2017-09-05T16:48:22.264Z,1023.4
2017-09-05T16:49:24.007Z,1023.4
2017-09-05T16:50:25.725Z,1023.3
2017-09-05T16:51:27.506Z,1023.2
2017-09-05T16:52:29.233Z,1023.3
2017-09-05T16:53:30.971Z,1023.3
2017-09-05T16:54:32.757Z,1023.3
2017-09-05T16:55:34.483Z,1023.2
2017-09-05T16:56:36.211Z,1023.2
2017-09-05T16:57:37.955Z,1023.2
2017-09-05T16:58:39.718Z,1023.2
2017-09-05T16:59:41.469Z,1023.3
2017-09-05T17:00:43.284Z,1023.3
2017-09-05T17:01:45.031Z,1023.3
2017-09-05T17:02:47.302Z,1023.3
2017-09-05T17:03:49.147Z,1023.3
2017-09-05T17:04:50.932Z,1023.3
2017-09-05T17:05:52.718Z,1023.4
2017-09-05T17:06:54.453Z,1023.3
2017-09-05T17:07:56.175Z,1023.4
2017-09-05T17:08:57.994Z,1023.3
2017-09-05T17:09:59.727Z,1023.3
2017-09-05T17:11:01.510Z,1023.4
2017-09-05T17:12:03.371Z,1023.3
2017-09-05T17:13:05.082Z,1023.4
2017-09-05T17:14:06.917Z,1023.3
2017-09-05T17:15:08.678Z,1023.3
2017-09-05T17:16:10.424Z,1023.4
2017-09-05T17:17:12.182Z,1023.4
2017-09-05T17:18:13.940Z,1023.4
2017-09-05T17:19:15.673Z,1023.4
2017-09-05T17:20:17.535Z,1023.4
2017-09-05T17:21:19.254Z,1023.4
2017-09-05T17:22:20.967Z,1023.4
2017-09-05T17:23:22.699Z,1023.4
2017-09-05T17:24:24.437Z,1023.4
2017-09-05T17:25:26.152Z,1023.4
2017-09-05T17:26:27.884Z,1023.4
2017-09-05T17:27:29.670Z,1023.4
2017-09-05T17:28:31.474Z,1023.4
2017-09-05T17:29:33.199Z,1023.3
2017-09-05T17:30:35.008Z,1023.4
2017-09-05T17:31:36.763Z,1023.4
2017-09-05T17:32:38.531Z,1023.4
2017-09-05T17:33:40.288Z,1023.4
2017-09-05T17:34:42.039Z,1023.4
2017-09-05T17:35:43.782Z,1023.4
2017-09-05T17:36:45.539Z,1023.4
2017-09-05T17:37:47.277Z,1023.4
2017-09-05T17:38:49.018Z,1023.4
2017-09-05T17:39:50.768Z,1023.4
2017-09-05T17:40:52.529Z,1023.4
2017-09-05T17:41:54.252Z,1023.3
2017-09-05T17:42:55.987Z,1023.3
2017-09-05T17:43:57.775Z,1023.3
2017-09-05T17:44:59.485Z,1023.3
2017-09-05T17:46:01.216Z,1023.3
2017-09-05T17:47:02.991Z,1023.3
2017-09-05T17:48:04.765Z,1023.3
2017-09-05T17:49:06.518Z,1023.3
2017-09-05T17:50:08.333Z,1023.2
2017-09-05T17:51:10.053Z,1023.3
2017-09-05T17:52:11.798Z,1023.3
2017-09-05T17:53:13.527Z,1023.3
2017-09-05T17:54:15.243Z,1023.3
2017-09-05T17:55:16.990Z,1023.3
2017-09-05T17:56:18.716Z,1023.3
2017-09-05T17:57:20.498Z,1023.3
2017-09-05T17:58:22.219Z,1023.3
2017-09-05T17:59:23.925Z,1023.3
2017-09-05T18:00:25.668Z,1023.3
2017-09-05T18:01:27.678Z,1023.3
2017-09-05T18:02:29.318Z,1023.4
2017-09-05T18:03:32.351Z,1023.3
2017-09-05T18:04:33.977Z,1023.3
2017-09-05T18:05:35.714Z,1023.3
2017-09-05T18:06:37.486Z,1023.2
2017-09-05T18:07:39.224Z,1023.2
2017-09-05T18:08:40.985Z,1023.2
2017-09-05T18:09:42.694Z,1023.2
2017-09-05T18:10:44.449Z,1023.2
2017-09-05T18:11:46.214Z,1023.2
2017-09-05T18:12:47.926Z,1023.2
2017-09-05T18:13:49.713Z,1023.2
2017-09-05T18:14:51.458Z,1023.2
2017-09-05T18:15:53.210Z,1023.1
2017-09-05T18:16:54.964Z,1023.2
2017-09-05T18:17:56.697Z,1023.2
2017-09-05T18:18:58.495Z,1023.2
2017-09-05T18:20:00.237Z,1023.2
2017-09-05T18:21:01.967Z,1023.2
2017-09-05T18:22:03.810Z,1023.3
2017-09-05T18:23:05.616Z,1023.3
2017-09-05T18:24:07.412Z,1023.3
2017-09-05T18:25:09.201Z,1023.3
2017-09-05T18:26:11.016Z,1023.3
2017-09-05T18:27:12.774Z,1023.3
2017-09-05T18:28:14.531Z,1023.2
2017-09-05T18:29:16.291Z,1023.3
2017-09-05T18:30:18.090Z,1023.3
2017-09-05T18:31:19.854Z,1023.2
2017-09-05T18:32:21.672Z,1023.3
2017-09-05T18:33:23.453Z,1023.3
2017-09-05T18:34:25.201Z,1023.3
2017-09-05T18:35:26.921Z,1023.3
2017-09-05T18:36:28.646Z,1023.3
2017-09-05T18:37:30.392Z,1023.3
2017-09-05T18:38:32.198Z,1023.3
2017-09-05T18:39:34.013Z,1023.3
2017-09-05T18:40:35.742Z,1023.4
2017-09-05T18:41:37.470Z,1023.3
2017-09-05T18:42:39.239Z,1023.3
2017-09-05T18:43:40.965Z,1023.3
2017-09-05T18:44:42.683Z,1023.3
2017-09-05T18:45:44.446Z,1023.3
2017-09-05T18:46:46.172Z,1023.3
2017-09-05T18:47:47.908Z,1023.3
2017-09-05T18:48:49.697Z,1023.3
2017-09-05T18:49:51.441Z,1023.3
2017-09-05T18:50:53.254Z,1023.3
2017-09-05T18:51:55.038Z,1023.3
2017-09-05T18:52:56.778Z,1023.3
2017-09-05T18:53:58.528Z,1023.4
2017-09-05T18:55:00.323Z,1023.3
2017-09-05T18:56:02.116Z,1023.3
2017-09-05T18:57:03.905Z,1023.3
2017-09-05T18:58:05.715Z,1023.3
2017-09-05T18:59:07.450Z,1023.3
2017-09-05T19:00:09.274Z,1023.4
2017-09-05T19:01:11.021Z,1023.3
2017-09-05T19:02:12.756Z,1023.4
2017-09-05T19:03:14.541Z,1023.4
2017-09-05T19:04:16.308Z,1023.4
2017-09-05T19:05:18.079Z,1023.3
2017-09-05T19:06:19.916Z,1023.3
2017-09-05T19:07:21.661Z,1023.4
2017-09-05T19:08:23.755Z,1023.5
2017-09-05T19:09:25.505Z,1023.5
2017-09-05T19:10:27.249Z,1023.4
2017-09-05T19:11:28.959Z,1023.5
2017-09-05T19:12:30.752Z,1023.4
2017-09-05T19:13:32.482Z,1023.5
2017-09-05T19:14:34.328Z,1023.5
2017-09-05T19:15:36.085Z,1023.5
2017-09-05T19:16:37.858Z,1023.5
2017-09-05T19:17:39.637Z,1023.5
2017-09-05T19:18:41.503Z,1023.5
2017-09-05T19:19:43.302Z,1023.5
2017-09-05T19:20:45.129Z,1023.5
2017-09-05T19:21:47.092Z,1023.5
2017-09-05T19:22:48.833Z,1023.5
2017-09-05T19:23:50.535Z,1023.5
2017-09-05T19:24:52.318Z,1023.5
2017-09-05T19:25:54.065Z,1023.6
2017-09-05T19:26:55.807Z,1023.5
2017-09-05T19:27:57.519Z,1023.5
2017-09-05T19:28:59.335Z,1023.6
2017-09-05T19:30:01.042Z,1023.6
2017-09-05T19:31:03.537Z,1023.6
2017-09-05T19:32:05.360Z,1023.6
2017-09-05T19:33:07.210Z,1023.5
2017-09-05T19:34:09.020Z,1023.6
2017-09-05T19:35:10.749Z,1023.6
2017-09-05T19:36:12.541Z,1023.6
2017-09-05T19:37:14.287Z,1023.6
2017-09-05T19:38:16.086Z,1023.6
2017-09-05T19:39:17.818Z,1023.6
2017-09-05T19:40:19.553Z,1023.5
2017-09-05T19:41:21.335Z,1023.6
2017-09-05T19:42:23.089Z,1023.6
2017-09-05T19:43:24.871Z,1023.6
2017-09-05T19:44:26.607Z,1023.6
2017-09-05T19:45:28.372Z,1023.6
2017-09-05T19:46:30.129Z,1023.6
2017-09-05T19:47:31.859Z,1023.7
2017-09-05T19:48:33.586Z,1023.6
2017-09-05T19:49:35.364Z,1023.6
2017-09-05T19:50:37.064Z,1023.6
2017-09-05T19:51:38.860Z,1023.7
2017-09-05T19:52:40.577Z,1023.6
2017-09-05T19:53:42.347Z,1023.7
2017-09-05T19:54:44.075Z,1023.6
2017-09-05T19:55:45.833Z,1023.6
2017-09-05T19:56:47.606Z,1023.6
2017-09-05T19:57:49.419Z,1023.6
2017-09-05T19:58:51.126Z,1023.7
2017-09-05T19:59:52.846Z,1023.6
2017-09-05T20:00:54.587Z,1023.6
2017-09-05T20:01:56.335Z,1023.6
2017-09-05T20:02:58.111Z,1023.7
2017-09-05T20:03:59.848Z,1023.7
2017-09-05T20:05:01.590Z,1023.7
2017-09-05T20:06:03.305Z,1023.8
2017-09-05T20:07:05.051Z,1023.7
2017-09-05T20:08:06.836Z,1023.7
2017-09-05T20:09:08.609Z,1023.7
2017-09-05T20:10:10.455Z,1023.8
2017-09-05T20:11:12.256Z,1023.7
2017-09-05T20:12:14.059Z,1023.8
2017-09-05T20:13:15.806Z,1023.7
2017-09-05T20:14:17.558Z,1023.8
2017-09-05T20:15:19.351Z,1023.8
2017-09-05T20:16:21.137Z,1023.8
2017-09-05T20:17:22.922Z,1023.9
2017-09-05T20:18:24.743Z,1023.9
2017-09-05T20:19:26.665Z,1023.9
2017-09-05T20:20:28.418Z,1023.9
2017-09-05T20:21:30.171Z,1023.9
2017-09-05T20:22:32.044Z,1023.9
2017-09-05T20:23:33.910Z,1023.9
2017-09-05T20:24:35.665Z,1024.0
2017-09-05T20:25:37.403Z,1024.0
2017-09-05T20:26:39.167Z,1024.0
2017-09-05T20:27:40.937Z,1024.0
2017-09-05T20:28:42.683Z,1024.0
2017-09-05T20:29:44.467Z,1024.0
2017-09-05T20:30:46.236Z,1024.0
2017-09-05T20:31:48.008Z,1024.0
2017-09-05T20:32:49.787Z,1024.1
2017-09-05T20:33:51.580Z,1024.0
2017-09-05T20:34:53.400Z,1024.1
2017-09-05T20:35:55.187Z,1024.1
2017-09-05T20:36:56.928Z,1024.1
2017-09-05T20:37:58.733Z,1024.1
2017-09-05T20:39:00.519Z,1024.0
2017-09-05T20:40:02.288Z,1024.1
2017-09-05T20:41:04.036Z,1024.1
2017-09-05T20:42:05.800Z,1024.1
2017-09-05T20:43:07.577Z,1024.1
2017-09-05T20:44:09.365Z,1024.1
2017-09-05T20:45:11.139Z,1024.1
2017-09-05T20:46:12.880Z,1024.1
2017-09-05T20:47:14.628Z,1024.1
2017-09-05T20:48:16.454Z,1024.1
2017-09-05T20:49:18.235Z,1024.1
2017-09-05T20:50:20.052Z,1024.1
2017-09-05T20:51:21.817Z,1024.0
2017-09-05T20:52:23.564Z,1024.1
2017-09-05T20:53:25.363Z,1024.1
2017-09-05T20:54:27.185Z,1024.0
2017-09-05T20:55:29.037Z,1024.0
2017-09-05T20:56:30.862Z,1024.0
2017-09-05T20:57:32.640Z,1024.0
2017-09-05T20:58:34.490Z,1024.0
2017-09-05T20:59:36.281Z,1024.0
2017-09-05T21:00:38.093Z,1024.0
2017-09-05T21:01:39.983Z,1024.0
2017-09-05T21:02:41.745Z,1024.0
2017-09-05T21:03:43.510Z,1024.1
2017-09-05T21:04:45.271Z,1024.1
2017-09-05T21:05:47.074Z,1024.1
2017-09-05T21:06:48.849Z,1024.0
2017-09-05T21:07:50.607Z,1024.0
2017-09-05T21:08:52.356Z,1024.0
2017-09-05T21:09:54.132Z,1024.1
2017-09-05T21:10:55.899Z,1024.0
2017-09-05T21:11:57.687Z,1024.0
2017-09-05T21:12:59.458Z,1024.0
2017-09-05T21:14:01.518Z,1024.0
2017-09-05T21:15:03.323Z,1024.0
2017-09-05T21:16:05.199Z,1024.0
2017-09-05T21:17:07.015Z,1024.0
2017-09-05T21:18:08.778Z,1024.0
2017-09-05T21:19:10.648Z,1024.0
2017-09-05T21:20:12.403Z,1024.0
2017-09-05T21:21:14.145Z,1024.0
2017-09-05T21:22:15.948Z,1024.0
2017-09-05T21:23:17.718Z,1023.9
2017-09-05T21:24:19.483Z,1024.0
2017-09-05T21:25:21.232Z,1023.9
2017-09-05T21:26:23.017Z,1024.0
2017-09-05T21:27:24.771Z,1023.9
2017-09-05T21:28:26.559Z,1023.9
2017-09-05T21:29:28.313Z,1023.9
2017-09-05T21:30:30.101Z,1023.9
2017-09-05T21:31:31.839Z,1023.9
2017-09-05T21:32:33.600Z,1024.0
2017-09-05T21:33:35.359Z,1024.0
2017-09-05T21:34:37.230Z,1024.0
2017-09-05T21:35:39.080Z,1024.1
2017-09-05T21:36:40.866Z,1024.0
2017-09-05T21:37:42.687Z,1024.0
2017-09-05T21:38:44.491Z,1024.0
2017-09-05T21:39:46.237Z,1024.0
2017-09-05T21:40:47.990Z,1024.0
2017-09-05T21:41:49.735Z,1024.0
2017-09-05T21:42:51.504Z,1024.0
2017-09-05T21:43:53.263Z,1023.9
2017-09-05T21:44:55.015Z,1023.9
2017-09-05T21:45:56.805Z,1023.9
2017-09-05T21:46:58.538Z,1023.9
2017-09-05T21:48:00.343Z,1023.9
2017-09-05T21:49:02.177Z,1023.9
2017-09-05T21:50:04.042Z,1023.9
2017-09-05T21:51:05.925Z,1023.9
2017-09-05T21:52:07.838Z,1023.9
2017-09-05T21:53:09.689Z,1023.9
2017-09-05T21:54:11.507Z,1023.9
2017-09-05T21:55:13.284Z,1023.9
2017-09-05T21:56:15.046Z,1023.9
2017-09-05T21:57:16.812Z,1023.9
2017-09-05T21:58:18.612Z,1023.9
2017-09-05T21:59:20.390Z,1023.8
2017-09-05T22:00:22.203Z,1023.8
2017-09-05T22:01:23.989Z,1023.9
2017-09-05T22:02:25.788Z,1023.8
2017-09-05T22:03:27.594Z,1023.9
2017-09-05T22:04:29.526Z,1023.9
2017-09-05T22:05:31.330Z,1023.9
2017-09-05T22:06:33.101Z,1023.9
2017-09-05T22:07:34.898Z,1023.9
2017-09-05T22:08:36.647Z,1023.9
2017-09-05T22:09:38.480Z,1023.9
2017-09-05T22:10:40.254Z,1023.9
2017-09-05T22:11:42.096Z,1023.9
2017-09-05T22:12:43.936Z,1023.8
2017-09-05T22:13:45.773Z,1023.9
2017-09-05T22:14:47.760Z,1023.9
2017-09-05T22:15:49.679Z,1023.9
2017-09-05T22:16:51.582Z,1023.9
2017-09-05T22:17:53.420Z,1023.9
2017-09-05T22:18:55.237Z,1023.9
2017-09-05T22:19:57.080Z,1023.9
2017-09-05T22:20:58.932Z,1023.9
2017-09-05T22:22:00.768Z,1023.9
2017-09-05T22:23:02.545Z,1023.9
2017-09-05T22:24:04.387Z,1023.9
2017-09-05T22:25:06.175Z,1023.9
2017-09-05T22:26:08.006Z,1023.9
2017-09-05T22:27:09.849Z,1023.9
2017-09-05T22:28:11.717Z,1023.8
2017-09-05T22:29:13.538Z,1023.8
2017-09-05T22:30:15.383Z,1023.8
2017-09-05T22:31:17.203Z,1023.8
2017-09-05T22:32:19.072Z,1023.9
2017-09-05T22:33:20.884Z,1023.8
2017-09-05T22:34:22.737Z,1023.8
2017-09-05T22:35:24.579Z,1023.8
2017-09-05T22:36:26.474Z,1023.8
2017-09-05T22:37:28.339Z,1023.8
2017-09-05T22:38:30.191Z,1023.8
2017-09-05T22:39:32.027Z,1023.8
2017-09-05T22:40:33.843Z,1023.8
2017-09-05T22:41:35.685Z,1023.8
2017-09-05T22:42:37.515Z,1023.8
2017-09-05T22:43:39.478Z,1023.8
2017-09-05T22:44:41.313Z,1023.7
2017-09-05T22:45:43.153Z,1023.8
2017-09-05T22:46:45.026Z,1023.7
2017-09-05T22:47:46.883Z,1023.7
2017-09-05T22:48:48.777Z,1023.7
2017-09-05T22:49:50.627Z,1023.7
2017-09-05T22:50:52.468Z,1023.7
2017-09-05T22:51:54.275Z,1023.7
2017-09-05T22:52:56.112Z,1023.8
2017-09-05T22:53:57.944Z,1023.7
2017-09-05T22:54:59.840Z,1023.8
2017-09-05T22:56:01.701Z,1023.8
2017-09-05T22:57:03.500Z,1023.8
2017-09-05T22:58:05.284Z,1023.8
2017-09-05T22:59:07.112Z,1023.8
2017-09-05T23:00:08.890Z,1023.8
2017-09-05T23:01:10.691Z,1023.8
2017-09-05T23:02:12.518Z,1023.8
2017-09-05T23:03:14.278Z,1023.9
2017-09-05T23:04:16.006Z,1023.8
2017-09-05T23:05:17.793Z,1023.8
2017-09-05T23:06:19.623Z,1023.8
2017-09-05T23:07:21.416Z,1023.8
2017-09-05T23:08:23.259Z,1023.8
2017-09-05T23:09:25.083Z,1023.8
2017-09-05T23:10:26.889Z,1023.8
2017-09-05T23:11:28.695Z,1023.8
2017-09-05T23:12:30.608Z,1023.8
2017-09-05T23:13:32.383Z,1023.7
2017-09-05T23:14:34.133Z,1023.8
2017-09-05T23:15:35.882Z,1023.7
2017-09-05T23:16:37.638Z,1023.7
2017-09-05T23:17:39.482Z,1023.8
2017-09-05T23:18:41.238Z,1023.8
2017-09-05T23:19:43.001Z,1023.7
2017-09-05T23:20:44.768Z,1023.8
2017-09-05T23:21:46.507Z,1023.8
2017-09-05T23:22:48.289Z,1023.8
2017-09-05T23:23:50.124Z,1023.8
2017-09-05T23:24:51.896Z,1023.8
2017-09-05T23:25:53.652Z,1023.8
2017-09-05T23:26:55.403Z,1023.8
2017-09-05T23:27:57.144Z,1023.8
2017-09-05T23:28:58.863Z,1023.8
2017-09-05T23:30:00.657Z,1023.8
2017-09-05T23:31:02.443Z,1023.8
2017-09-05T23:32:04.232Z,1023.7
2017-09-05T23:33:05.991Z,1023.7
2017-09-05T23:34:07.739Z,1023.8
2017-09-05T23:35:09.521Z,1023.7
2017-09-05T23:36:11.303Z,1023.8
2017-09-05T23:37:13.026Z,1023.8
2017-09-05T23:38:14.776Z,1023.8
2017-09-05T23:39:16.501Z,1023.8
2017-09-05T23:40:18.237Z,1023.8
2017-09-05T23:41:20.108Z,1023.8
2017-09-05T23:42:21.818Z,1023.7
2017-09-05T23:43:23.576Z,1023.8
2017-09-05T23:44:25.335Z,1023.8
2017-09-05T23:45:27.152Z,1023.8
2017-09-05T23:46:28.900Z,1023.8
2017-09-05T23:47:30.652Z,1023.8
2017-09-05T23:48:32.381Z,1023.8
2017-09-05T23:49:34.113Z,1023.8
2017-09-05T23:50:35.852Z,1023.7
2017-09-05T23:51:37.593Z,1023.8
2017-09-05T23:52:39.410Z,1023.7
2017-09-05T23:53:41.148Z,1023.7
2017-09-05T23:54:42.912Z,1023.7
2017-09-05T23:55:44.630Z,1023.7
2017-09-05T23:56:46.345Z,1023.7
2017-09-05T23:57:48.070Z,1023.7
2017-09-05T23:58:49.856Z,1023.7
2017-09-05T23:59:51.560Z,1023.7
